createdAt,value
2023-05-04T00:01:20.299Z,3.12
2023-05-04T00:03:50.055Z,3.27
2023-05-04T00:06:20.123Z,3.40
2023-05-04T00:08:49.613Z,3.02
2023-05-04T00:11:19.230Z,3.30
2023-05-04T00:13:48.754Z,3.65
2023-05-04T00:16:18.261Z,3.80
2023-05-04T00:18:47.797Z,3.70
2023-05-04T00:21:17.275Z,3.77
2023-05-04T00:23:46.773Z,3.72
2023-05-04T00:26:16.309Z,4.33
2023-05-04T00:28:46.696Z,4.20
2023-05-04T00:31:18.050Z,3.72
2023-05-04T00:33:47.594Z,3.85
2023-05-04T00:36:17.696Z,3.92
2023-05-04T00:38:55.311Z,4.20
2023-05-04T00:41:25.083Z,3.87
2023-05-04T00:43:54.848Z,3.83
2023-05-04T00:46:24.370Z,4.95
2023-05-04T00:48:54.330Z,4.55
2023-05-04T00:51:26.421Z,4.35
2023-05-04T00:53:56.783Z,4.50
2023-05-04T00:56:30.106Z,4.15
2023-05-04T01:01:29.477Z,4.53
2023-05-04T01:03:59.830Z,4.62
2023-05-04T01:06:50.867Z,4.62
2023-05-04T01:09:32.531Z,4.58
2023-05-04T01:12:11.036Z,4.97
2023-05-04T01:14:42.685Z,5.00
2023-05-04T01:17:13.166Z,4.60
2023-05-04T01:19:42.793Z,4.62
2023-05-04T01:22:12.274Z,4.30
2023-05-04T01:24:41.888Z,4.45
2023-05-04T01:27:14.829Z,5.03
2023-05-04T01:29:53.246Z,4.50
2023-05-04T01:32:26.938Z,5.40
2023-05-04T01:34:57.824Z,4.20
2023-05-04T01:37:27.656Z,5.00
2023-05-04T01:39:57.129Z,4.28
2023-05-04T01:42:26.817Z,4.95
2023-05-04T01:44:56.483Z,4.80
2023-05-04T01:47:26.169Z,4.80
2023-05-04T01:49:55.699Z,5.12
2023-05-04T01:52:25.278Z,4.87
2023-05-04T01:54:54.751Z,5.22
2023-05-04T01:57:24.221Z,5.70
2023-05-04T01:59:55.071Z,5.20
2023-05-04T02:02:25.060Z,4.62
2023-05-04T02:04:54.700Z,4.47
2023-05-04T02:07:24.630Z,5.70
2023-05-04T02:09:54.089Z,5.83
2023-05-04T02:12:24.271Z,5.55
2023-05-04T02:14:53.822Z,5.25
2023-05-04T02:17:23.458Z,5.35
2023-05-04T02:19:53.016Z,4.13
2023-05-04T02:22:22.477Z,5.33
2023-05-04T02:25:44.191Z,5.03
2023-05-04T02:28:13.744Z,5.42
2023-05-04T02:30:44.733Z,5.60
2023-05-04T02:33:14.288Z,4.95
2023-05-04T02:36:03.549Z,5.40
2023-05-04T02:38:33.086Z,4.62
2023-05-04T02:41:03.577Z,5.60
2023-05-04T02:43:33.040Z,5.33
2023-05-04T02:46:02.562Z,5.62
2023-05-04T02:48:33.722Z,5.70
2023-05-04T02:51:03.855Z,5.78
2023-05-04T02:53:33.761Z,5.33
2023-05-04T02:56:03.241Z,5.93
2023-05-04T02:58:32.720Z,5.60
2023-05-04T03:01:03.530Z,5.33
2023-05-04T03:03:33.092Z,6.10
2023-05-04T03:06:02.708Z,5.40
2023-05-04T03:08:32.696Z,5.72
2023-05-04T03:11:02.366Z,5.80
2023-05-04T03:13:32.413Z,5.75
2023-05-04T03:16:03.635Z,5.42
2023-05-04T03:21:21.484Z,5.78
2023-05-04T03:23:51.765Z,5.55
2023-05-04T03:26:21.816Z,6.72
2023-05-04T03:28:51.852Z,6.22
2023-05-04T03:31:21.928Z,5.75
2023-05-04T03:33:52.927Z,6.75
2023-05-04T03:36:22.864Z,5.72
2023-05-04T03:38:52.900Z,6.08
2023-05-04T03:41:22.445Z,6.08
2023-05-04T03:43:52.131Z,6.12
2023-05-04T03:46:21.664Z,6.25
2023-05-04T03:48:52.052Z,5.87
2023-05-04T03:51:22.229Z,6.40
2023-05-04T03:53:51.780Z,5.60
2023-05-04T03:56:22.025Z,6.60
2023-05-04T03:58:51.572Z,6.40
2023-05-04T04:01:22.760Z,6.78
2023-05-04T04:03:52.340Z,6.72
2023-05-04T04:06:22.760Z,5.87
2023-05-04T04:08:52.387Z,6.03
2023-05-04T04:11:21.962Z,6.40
2023-05-04T04:13:51.456Z,6.42
2023-05-04T04:16:21.666Z,5.95
2023-05-04T04:18:52.837Z,6.42
2023-05-04T04:21:22.457Z,6.95
2023-05-04T04:23:51.941Z,6.12
2023-05-04T04:26:22.090Z,6.55
2023-05-04T04:28:51.584Z,7.20
2023-05-04T04:31:22.327Z,6.70
2023-05-04T04:33:52.948Z,7.05
2023-05-04T04:36:22.426Z,6.55
2023-05-04T04:38:52.576Z,6.15
2023-05-04T04:41:22.818Z,6.97
2023-05-04T04:43:52.296Z,7.47
2023-05-04T04:46:21.871Z,7.28
2023-05-04T04:48:53.111Z,8.25
2023-05-04T04:51:22.665Z,6.20
2023-05-04T04:53:52.201Z,6.03
2023-05-04T04:56:22.862Z,6.42
2023-05-04T04:58:52.499Z,6.90
2023-05-04T05:01:22.065Z,6.75
2023-05-04T05:03:51.974Z,6.58
2023-05-04T05:06:21.515Z,6.58
2023-05-04T05:11:20.360Z,5.60
2023-05-04T05:13:49.827Z,6.53
2023-05-04T05:16:19.484Z,6.53
2023-05-04T05:18:49.237Z,6.15
2023-05-04T05:21:18.712Z,7.28
2023-05-04T05:23:48.206Z,7.28
2023-05-04T05:26:18.001Z,6.28
2023-05-04T05:28:48.393Z,6.42
2023-05-04T05:31:17.962Z,6.20
2023-05-04T05:33:47.515Z,6.67
2023-05-04T05:36:17.001Z,7.45
2023-05-04T05:38:48.357Z,6.67
2023-05-04T05:41:18.023Z,7.33
2023-05-04T05:43:48.455Z,6.65
2023-05-04T05:46:18.555Z,6.62
2023-05-04T05:48:49.776Z,6.83
2023-05-04T05:51:19.251Z,6.72
2023-05-04T05:53:48.740Z,6.65
2023-05-04T05:56:18.385Z,6.40
2023-05-04T05:58:48.336Z,6.56
2023-05-04T06:01:18.764Z,7.65
2023-05-04T06:03:48.300Z,7.33
2023-05-04T06:06:18.065Z,7.78
2023-05-04T06:08:47.553Z,6.97
2023-05-04T06:11:17.200Z,7.92
2023-05-04T06:13:46.812Z,8.20
2023-05-04T06:16:16.376Z,7.80
2023-05-04T06:18:46.259Z,7.45
2023-05-04T06:21:15.908Z,7.55
2023-05-04T06:23:47.271Z,7.17
2023-05-04T06:26:17.501Z,7.72
2023-05-04T06:28:47.515Z,7.72
2023-05-04T06:31:17.094Z,7.53
2023-05-04T06:33:46.656Z,7.67
2023-05-04T06:36:16.710Z,7.78
2023-05-04T06:38:46.724Z,6.97
2023-05-04T06:41:16.265Z,7.08
2023-05-04T06:43:46.471Z,6.87
2023-05-04T06:46:17.766Z,6.80
2023-05-04T06:48:47.709Z,6.53
2023-05-04T06:51:17.214Z,7.40
2023-05-04T06:53:46.682Z,6.22
2023-05-04T06:56:17.101Z,5.80
2023-05-04T06:58:46.598Z,7.35
2023-05-04T07:01:18.287Z,6.12
2023-05-04T07:03:48.546Z,5.78
2023-05-04T07:06:18.584Z,6.00
2023-05-04T07:08:48.390Z,5.40
2023-05-04T07:11:18.260Z,6.47
2023-05-04T07:13:48.218Z,5.28
2023-05-04T07:16:18.168Z,4.67
2023-05-04T07:18:48.139Z,5.55
2023-05-04T07:21:27.520Z,5.33
2023-05-04T07:23:48.982Z,5.25
2023-05-04T07:26:18.524Z,4.45
2023-05-04T07:28:48.075Z,3.80
2023-05-04T07:31:17.827Z,5.03
2023-05-04T07:33:47.297Z,4.55
2023-05-04T07:36:16.922Z,4.83
2023-05-04T07:38:46.470Z,4.65
2023-05-04T07:41:15.961Z,4.95
2023-05-04T07:43:45.547Z,4.95
2023-05-04T07:46:15.251Z,5.75
2023-05-04T07:48:44.848Z,5.25
2023-05-04T07:51:16.426Z,4.00
2023-05-04T07:53:45.904Z,4.55
2023-05-04T07:56:15.392Z,5.33
2023-05-04T07:58:45.233Z,4.40
2023-05-04T08:01:14.719Z,4.00
2023-05-04T08:03:45.306Z,4.62
2023-05-04T08:06:15.182Z,4.40
2023-05-04T08:08:45.232Z,4.00
2023-05-04T08:11:20.507Z,4.70
2023-05-04T08:13:51.275Z,4.55
2023-05-04T08:16:21.919Z,3.62
2023-05-04T08:18:51.717Z,4.40
2023-05-04T08:21:21.368Z,5.30
2023-05-04T08:23:50.937Z,4.92
2023-05-04T08:26:20.816Z,4.08
2023-05-04T08:28:50.299Z,4.33
2023-05-04T08:31:20.081Z,4.03
2023-05-04T08:33:49.617Z,3.72
2023-05-04T08:36:19.104Z,4.47
2023-05-04T08:38:49.115Z,4.55
2023-05-04T08:41:18.710Z,4.03
2023-05-04T08:43:49.545Z,4.40
2023-05-04T08:46:19.204Z,4.17
2023-05-04T08:48:48.863Z,4.40
2023-05-04T08:51:19.912Z,4.55
2023-05-04T08:53:51.179Z,4.08
2023-05-04T08:56:23.316Z,4.30
2023-05-04T08:58:53.539Z,4.23
2023-05-04T09:01:24.190Z,4.20
2023-05-04T09:03:54.467Z,4.50
2023-05-04T09:06:25.033Z,4.28
2023-05-04T09:08:54.520Z,5.37
2023-05-04T09:11:24.545Z,4.05
2023-05-04T09:13:54.157Z,4.12
2023-05-04T09:16:24.135Z,3.98
2023-05-04T09:18:54.251Z,4.20
2023-05-04T09:21:30.086Z,4.58
2023-05-04T09:23:59.923Z,4.33
2023-05-04T09:26:32.200Z,4.55
2023-05-04T09:29:14.327Z,3.92
2023-05-04T09:31:48.970Z,4.03
2023-05-04T09:34:23.351Z,4.85
2023-05-04T09:37:03.797Z,4.55
2023-05-04T09:39:33.800Z,4.22
2023-05-04T09:42:05.057Z,4.42
2023-05-04T09:44:35.840Z,3.98
2023-05-04T09:47:05.845Z,3.97
2023-05-04T09:49:37.449Z,4.03
2023-05-04T09:52:07.946Z,4.62
2023-05-04T09:54:39.384Z,4.17
2023-05-04T09:57:15.197Z,3.98
2023-05-04T09:59:45.039Z,4.50
2023-05-04T10:02:22.872Z,4.22
2023-05-04T10:04:46.924Z,4.58
2023-05-04T10:07:17.318Z,4.30
2023-05-04T10:09:50.004Z,4.42
2023-05-04T10:12:19.628Z,4.12
2023-05-04T10:14:49.185Z,4.35
2023-05-04T10:17:40.232Z,3.90
2023-05-04T10:20:36.920Z,3.87
2023-05-04T10:23:29.612Z,4.07
2023-05-04T10:26:22.397Z,3.87
2023-05-04T10:29:23.839Z,3.55
2023-05-04T10:31:53.827Z,3.92
2023-05-04T10:34:34.737Z,4.00
2023-05-04T10:37:04.802Z,4.17
2023-05-04T10:39:36.708Z,3.80
2023-05-04T10:42:08.228Z,4.70
2023-05-04T10:44:55.814Z,4.53
2023-05-04T10:47:32.337Z,4.10
2023-05-04T10:50:10.866Z,4.50
2023-05-04T10:52:49.643Z,3.85
2023-05-04T10:55:20.336Z,3.65
2023-05-04T10:57:58.063Z,3.62
2023-05-04T11:00:42.578Z,3.87
2023-05-04T11:03:14.326Z,4.08
2023-05-04T11:05:46.286Z,4.00
2023-05-04T11:08:25.610Z,4.67
2023-05-04T11:11:07.749Z,3.70
2023-05-04T11:13:47.196Z,4.40
2023-05-04T11:16:25.845Z,4.15
2023-05-04T11:18:56.209Z,3.72
2023-05-04T11:21:27.372Z,3.80
2023-05-04T11:23:58.293Z,5.55
2023-05-04T11:26:28.894Z,3.98
2023-05-04T11:28:58.835Z,4.20
2023-05-04T11:31:28.812Z,3.83
2023-05-04T11:33:58.426Z,4.03
2023-05-04T11:36:29.125Z,4.00
2023-05-04T11:38:58.667Z,3.50
2023-05-04T11:41:29.976Z,3.83
2023-05-04T11:44:00.553Z,4.07
2023-05-04T11:46:31.784Z,4.00
2023-05-04T11:49:01.726Z,4.00
2023-05-04T11:51:31.371Z,4.08
2023-05-04T11:54:01.304Z,3.37
2023-05-04T11:56:32.471Z,3.72
2023-05-04T11:59:10.815Z,4.30
2023-05-04T12:01:40.595Z,4.00
2023-05-04T12:04:10.176Z,4.28
2023-05-04T12:06:40.179Z,6.95
2023-05-04T12:09:09.707Z,5.03
2023-05-04T12:11:41.238Z,3.72
2023-05-04T12:14:17.263Z,4.30
2023-05-04T12:16:56.073Z,4.10
2023-05-04T12:19:26.067Z,3.70
2023-05-04T12:21:58.172Z,3.83
2023-05-04T12:24:28.321Z,3.60
2023-05-04T12:26:57.788Z,3.50
2023-05-04T12:29:27.390Z,3.80
2023-05-04T12:31:57.132Z,3.77
2023-05-04T12:34:26.654Z,3.77
2023-05-04T12:36:56.198Z,3.90
2023-05-04T12:39:25.704Z,4.10
2023-05-04T12:41:55.263Z,3.83
2023-05-04T12:44:25.645Z,3.37
2023-05-04T12:46:56.675Z,3.83
2023-05-04T12:49:26.221Z,3.83
2023-05-04T12:51:55.779Z,4.20
2023-05-04T12:54:26.104Z,3.77
2023-05-04T12:56:55.857Z,3.87
2023-05-04T12:59:26.743Z,4.12
2023-05-04T13:01:56.528Z,3.70
2023-05-04T13:04:26.076Z,3.90
2023-05-04T13:06:55.764Z,3.85
2023-05-04T13:09:25.231Z,3.58
2023-05-04T13:11:55.317Z,3.22
2023-05-04T13:14:24.801Z,3.58
2023-05-04T13:16:54.304Z,4.55
2023-05-04T13:19:24.079Z,3.90
2023-05-04T13:21:53.883Z,3.60
2023-05-04T13:24:23.843Z,3.92
2023-05-04T13:26:53.724Z,3.42
2023-05-04T13:29:23.218Z,3.42
2023-05-04T13:31:53.348Z,4.06
2023-05-04T13:34:23.930Z,3.62
2023-05-04T13:36:53.408Z,3.90
2023-05-04T13:39:23.529Z,2.95
2023-05-04T13:41:53.501Z,3.12
2023-05-04T13:44:23.009Z,3.37
2023-05-04T13:46:53.263Z,3.68
2023-05-04T13:49:23.060Z,3.58
2023-05-04T13:51:52.557Z,3.87
2023-05-04T13:54:22.314Z,3.70
2023-05-04T13:56:52.387Z,4.22
2023-05-04T13:59:21.940Z,3.60
2023-05-04T14:01:53.266Z,4.42
2023-05-04T14:04:22.960Z,3.40
2023-05-04T14:06:53.481Z,3.80
2023-05-04T14:09:23.043Z,3.87
2023-05-04T14:11:52.528Z,3.80
2023-05-04T14:14:22.347Z,3.67
2023-05-04T14:16:51.904Z,3.60
2023-05-04T14:19:21.645Z,3.58
2023-05-04T14:21:51.520Z,3.52
2023-05-04T14:24:21.783Z,3.45
2023-05-04T14:26:51.754Z,3.17
2023-05-04T14:29:21.198Z,3.72
2023-05-04T14:31:52.293Z,4.15
2023-05-04T14:34:22.469Z,3.58
2023-05-04T14:36:53.142Z,3.05
2023-05-04T14:39:23.038Z,4.03
2023-05-04T14:41:53.236Z,3.10
2023-05-04T14:44:25.000Z,3.08
2023-05-04T14:46:54.764Z,3.80
2023-05-04T14:49:36.726Z,3.17
2023-05-04T14:51:56.020Z,3.33
2023-05-04T14:54:25.595Z,3.35
2023-05-04T14:56:55.071Z,2.55
2023-05-04T14:59:24.712Z,2.85
2023-05-04T15:01:55.588Z,2.30
2023-05-04T15:04:25.500Z,2.58
2023-05-04T15:06:55.050Z,2.22
2023-05-04T15:09:26.279Z,2.60
2023-05-04T15:11:55.826Z,2.30
2023-05-04T15:14:26.807Z,2.40
2023-05-04T15:16:56.349Z,2.55
2023-05-04T15:19:25.826Z,3.00
2023-05-04T15:21:55.970Z,2.75
2023-05-04T15:24:25.521Z,2.75
2023-05-04T15:26:55.014Z,2.33
2023-05-04T15:29:25.358Z,2.80
2023-05-04T15:31:56.401Z,3.67
2023-05-04T15:34:26.325Z,3.08
2023-05-04T15:36:57.250Z,2.87
2023-05-04T15:39:27.469Z,3.35
2023-05-04T15:41:56.947Z,3.42
2023-05-04T15:44:27.896Z,3.27
2023-05-04T15:46:57.471Z,3.12
2023-05-04T15:49:27.068Z,2.70
2023-05-04T15:51:56.571Z,2.50
2023-05-04T15:54:26.050Z,2.77
2023-05-04T15:56:55.552Z,2.22
2023-05-04T15:59:25.097Z,2.27
2023-05-04T16:01:55.084Z,2.35
2023-05-04T16:04:24.632Z,2.20
2023-05-04T16:06:54.203Z,2.02
2023-05-04T16:09:23.742Z,2.15
2023-05-04T16:11:53.814Z,2.30
2023-05-04T16:14:23.496Z,2.50
2023-05-04T16:16:53.006Z,2.62
2023-05-04T16:19:22.547Z,2.70
2023-05-04T16:21:52.066Z,2.85
2023-05-04T16:24:21.531Z,2.33
2023-05-04T16:26:53.048Z,2.55
2023-05-04T16:29:23.384Z,2.37
2023-05-04T16:31:53.816Z,2.60
2023-05-04T16:34:23.338Z,2.27
2023-05-04T16:36:52.824Z,2.30
2023-05-04T16:39:22.370Z,2.62
2023-05-04T16:41:51.966Z,2.70
2023-05-04T16:44:21.442Z,2.92
2023-05-04T16:46:51.776Z,2.37
2023-05-04T16:49:25.053Z,2.47
2023-05-04T16:51:55.480Z,2.40
2023-05-04T16:54:25.081Z,3.00
2023-05-04T16:56:54.562Z,2.42
2023-05-04T16:59:25.060Z,2.55
2023-05-04T17:01:54.616Z,2.77
2023-05-04T17:04:25.796Z,2.83
2023-05-04T17:06:55.356Z,2.42
2023-05-04T17:09:24.820Z,2.17
2023-05-04T17:11:54.411Z,2.42
2023-05-04T17:14:49.943Z,2.22
2023-05-04T17:17:12.072Z,2.45
2023-05-04T17:19:41.545Z,3.12
2023-05-04T17:22:11.391Z,2.40
2023-05-04T17:24:43.550Z,2.80
2023-05-04T17:27:13.634Z,2.17
2023-05-04T17:29:44.255Z,2.60
2023-05-04T17:32:13.712Z,2.57
2023-05-04T17:34:43.284Z,2.22
2023-05-04T17:37:12.794Z,2.37
2023-05-04T17:39:42.279Z,2.57
2023-05-04T17:42:12.495Z,2.58
2023-05-04T17:44:42.107Z,2.80
2023-05-04T17:47:12.325Z,2.26
2023-05-04T17:49:41.874Z,2.72
2023-05-04T17:52:13.674Z,2.67
2023-05-04T17:54:43.262Z,2.50
2023-05-04T17:57:12.806Z,2.80
2023-05-04T17:59:42.325Z,2.83
2023-05-04T18:02:12.198Z,2.56
2023-05-04T18:04:41.751Z,2.45
2023-05-04T18:07:11.265Z,2.47
2023-05-04T18:09:40.826Z,2.87
2023-05-04T18:12:10.303Z,2.50
2023-05-04T18:14:39.819Z,2.85
2023-05-04T18:17:09.319Z,2.70
2023-05-04T18:19:38.907Z,2.77
2023-05-04T18:22:08.416Z,2.50
2023-05-04T18:24:37.870Z,2.67
2023-05-04T18:27:07.528Z,2.50
2023-05-04T18:29:37.112Z,3.00
2023-05-04T18:32:08.377Z,2.50
2023-05-04T18:34:38.175Z,2.52
2023-05-04T18:37:07.700Z,3.20
2023-05-04T18:39:38.136Z,2.67
2023-05-04T18:42:07.682Z,2.70
2023-05-04T18:44:37.136Z,2.80
2023-05-04T18:47:07.941Z,2.95
2023-05-04T18:49:37.789Z,2.83
2023-05-04T18:52:07.300Z,2.50
2023-05-04T18:54:36.820Z,3.17
2023-05-04T18:57:06.759Z,2.58
2023-05-04T18:59:36.596Z,2.83
2023-05-04T19:02:07.041Z,3.35
2023-05-04T19:04:36.661Z,2.67
2023-05-04T19:07:06.263Z,3.58
2023-05-04T19:09:36.442Z,3.40
2023-05-04T19:12:06.193Z,3.15
2023-05-04T19:14:35.660Z,3.65
2023-05-04T19:17:05.879Z,3.47
2023-05-04T19:19:37.842Z,2.90
2023-05-04T19:22:07.933Z,3.08
2023-05-04T19:24:37.831Z,3.60
2023-05-04T19:27:07.449Z,3.30
2023-05-04T19:29:36.960Z,3.10
2023-05-04T19:32:19.716Z,2.77
2023-05-04T19:34:38.487Z,2.72
2023-05-04T19:37:07.969Z,2.65
2023-05-04T19:39:37.586Z,2.87
2023-05-04T19:42:07.313Z,2.70
2023-05-04T19:44:36.765Z,3.20
2023-05-04T19:47:06.843Z,2.75
2023-05-04T19:49:37.075Z,2.47
2023-05-04T19:52:07.006Z,2.67
2023-05-04T19:54:38.452Z,2.85
2023-05-04T19:57:08.308Z,2.67
2023-05-04T19:59:37.787Z,2.50
2023-05-04T20:02:08.801Z,2.92
2023-05-04T20:04:38.308Z,2.92
2023-05-04T20:07:08.219Z,2.93
2023-05-04T20:09:37.692Z,2.77
2023-05-04T20:12:07.174Z,3.30
2023-05-04T20:14:37.303Z,3.70
2023-05-04T20:17:06.839Z,3.15
2023-05-04T20:19:38.073Z,3.60
2023-05-04T20:22:07.812Z,2.92
2023-05-04T20:24:37.428Z,3.15
2023-05-04T20:27:07.043Z,3.08
2023-05-04T20:29:36.597Z,3.37
2023-05-04T20:32:07.270Z,3.58
2023-05-04T20:34:38.487Z,3.02
2023-05-04T20:37:07.999Z,3.17
2023-05-04T20:39:37.470Z,3.08
2023-05-04T20:42:08.250Z,2.98
2023-05-04T20:44:37.716Z,3.00
2023-05-04T20:47:07.200Z,3.42
2023-05-04T20:49:37.019Z,3.17
2023-05-04T20:52:06.680Z,3.00
2023-05-04T20:54:36.675Z,3.50
2023-05-04T20:57:07.102Z,3.72
2023-05-04T20:59:36.698Z,3.55
2023-05-04T21:02:06.182Z,3.25
2023-05-04T21:04:35.754Z,3.22
2023-05-04T21:07:05.407Z,3.22
2023-05-04T21:09:35.050Z,3.20
2023-05-04T21:12:04.667Z,2.80
2023-05-04T21:14:34.139Z,3.17
2023-05-04T21:17:03.741Z,3.12
2023-05-04T21:19:33.207Z,3.55
2023-05-04T21:22:02.724Z,3.40
2023-05-04T21:24:35.956Z,2.98
2023-05-04T21:27:05.520Z,2.85
2023-05-04T21:29:35.113Z,3.30
2023-05-04T21:32:06.022Z,3.50
2023-05-04T21:34:35.567Z,3.15
2023-05-04T21:37:05.121Z,3.20
2023-05-04T21:39:34.761Z,3.08
2023-05-04T21:42:04.659Z,3.40
2023-05-04T21:44:34.239Z,3.50
2023-05-04T21:47:03.848Z,3.55
2023-05-04T21:49:33.445Z,3.42
2023-05-04T21:52:02.963Z,3.83
2023-05-04T21:54:32.442Z,2.80
2023-05-04T21:57:01.921Z,3.08
2023-05-04T21:59:31.926Z,3.03
2023-05-04T22:02:01.661Z,3.47
2023-05-04T22:04:31.311Z,2.80
2023-05-04T22:07:01.216Z,3.10
2023-05-04T22:09:30.733Z,2.72
2023-05-04T22:12:00.170Z,2.87
2023-05-04T22:14:29.907Z,2.52
2023-05-04T22:16:59.717Z,2.62
2023-05-04T22:19:29.494Z,2.98
2023-05-04T22:21:59.278Z,2.98
2023-05-04T22:24:28.770Z,3.27
2023-05-04T22:26:58.248Z,3.10
2023-05-04T22:29:27.814Z,3.15
2023-05-04T22:31:57.277Z,3.17
2023-05-04T22:34:26.789Z,2.62
2023-05-04T22:36:56.767Z,3.02
2023-05-04T22:39:26.332Z,2.58
2023-05-04T22:41:56.440Z,2.60
2023-05-04T22:44:25.948Z,2.63
2023-05-04T22:46:55.980Z,2.80
2023-05-04T22:49:25.908Z,3.33
2023-05-04T22:51:55.450Z,2.67
2023-05-04T22:54:25.865Z,3.47
2023-05-04T22:56:56.256Z,2.70
2023-05-04T22:59:25.733Z,2.40
2023-05-04T23:01:55.589Z,3.00
2023-05-04T23:04:25.575Z,3.00
2023-05-04T23:06:55.963Z,2.85
2023-05-04T23:09:25.938Z,2.72
2023-05-04T23:11:55.658Z,3.20
2023-05-04T23:14:25.662Z,3.00
2023-05-04T23:16:55.379Z,3.72
2023-05-04T23:19:24.982Z,2.80
2023-05-04T23:21:54.495Z,2.77
2023-05-04T23:24:24.746Z,2.90
2023-05-04T23:26:54.300Z,3.02
2023-05-04T23:29:23.774Z,3.27
2023-05-04T23:31:54.072Z,3.10
2023-05-04T23:34:23.639Z,2.47
2023-05-04T23:36:56.062Z,2.35
2023-05-04T23:39:25.632Z,2.65
2023-05-04T23:41:55.127Z,2.80
2023-05-04T23:44:24.574Z,2.60
2023-05-04T23:46:54.528Z,2.27
2023-05-04T23:49:24.022Z,2.65
2023-05-04T23:51:53.865Z,2.87
2023-05-04T23:54:23.681Z,2.30
2023-05-04T23:56:53.138Z,2.70
2023-05-04T23:59:22.682Z,2.40
